Time;durP1;ratioP1;P1;durP2;ratioP2;P2;SDS_P1;SDS_P2;PMS_P1;PMS_P2;Temp;Humidity;BMP_temperature;BMP_pressure;BME280_temperature;BME280_humidity;BME280_pressure;Samples;Min_cycle;Max_cycle;Signal;HPM_P1;HPM_P2
2022/10/29 00:00:43;;;;;;;35.00;31.20;;;;;;;8.21;100.00;99688.95;106338;1285;63914;-76
2022/10/29 00:03:29;;;;;;;32.40;29.00;;;;;;;8.18;100.00;99681.98;106107;1292;59293;-77
2022/10/29 00:06:01;;;;;;;31.70;27.50;;;;;;;8.17;100.00;99675.30;106338;1278;59058;-77
2022/10/29 00:08:32;;;;;;;32.80;29.40;;;;;;;8.15;100.00;99681.95;106339;1279;66896;-77
2022/10/29 00:11:10;;;;;;;37.60;33.80;;;;;;;8.13;100.00;99683.08;106315;1285;59946;-77
2022/10/29 00:13:37;;;;;;;34.00;30.40;;;;;;;8.11;100.00;99682.29;106347;1284;64852;-77
2022/10/29 00:16:10;;;;;;;52.10;43.30;;;;;;;8.10;100.00;99683.23;106108;1296;58903;-77
2022/10/29 00:18:38;;;;;;;37.10;32.90;;;;;;;8.09;100.00;99682.95;106358;1285;58905;-76
2022/10/29 00:21:09;;;;;;;41.60;36.70;;;;;;;8.08;100.00;99680.70;106369;1289;65266;-77
2022/10/29 00:23:36;;;;;;;42.20;35.30;;;;;;;8.10;100.00;99678.48;106338;1285;60792;-77
2022/10/29 00:26:03;;;;;;;39.70;34.60;;;;;;;8.11;100.00;99682.32;106340;1285;64011;-77
2022/10/29 00:28:30;;;;;;;39.10;35.00;;;;;;;8.10;100.00;99686.08;106080;1288;59097;-77
2022/10/29 00:31:03;;;;;;;40.50;35.20;;;;;;;8.07;100.00;99683.20;106332;1278;58988;-77
2022/10/29 00:33:30;;;;;;;40.80;35.70;;;;;;;8.03;100.00;99681.09;106355;1284;64799;-76
2022/10/29 00:36:02;;;;;;;40.70;35.30;;;;;;;8.01;100.00;99682.25;106325;1285;60047;-77
2022/10/29 00:38:31;;;;;;;40.60;34.90;;;;;;;7.98;100.00;99685.19;106330;1286;65071;-77
2022/10/29 00:40:58;;;;;;;31.40;28.30;;;;;;;7.95;100.00;99687.10;106319;1285;59263;-77
2022/10/29 00:43:25;;;;;;;48.40;41.20;;;;;;;7.93;100.00;99682.77;106359;1285;58927;-77
2022/10/29 00:45:56;;;;;;;35.40;31.60;;;;;;;7.90;100.00;99677.60;106346;1285;66001;-77
2022/10/29 00:48:26;;;;;;;34.70;31.10;;;;;;;7.87;100.00;99675.08;106347;1275;61030;-77
2022/10/29 00:50:54;;;;;;;37.10;32.70;;;;;;;7.85;100.00;99675.86;106330;1284;65191;-77
2022/10/29 00:53:27;;;;;;;33.40;29.80;;;;;;;7.84;100.00;99678.59;106325;1286;59189;-77
2022/10/29 00:55:53;;;;;;;35.70;31.80;;;;;;;7.83;100.00;99679.34;106331;1286;59006;-77
2022/10/29 00:58:20;;;;;;;32.00;28.70;;;;;;;7.81;100.00;99680.84;106327;1285;67060;-77
2022/10/29 01:00:47;;;;;;;34.60;30.80;;;;;;;7.78;100.00;99683.09;106338;1284;59995;-77
2022/10/29 01:03:13;;;;;;;39.20;34.60;;;;;;;7.74;100.00;99679.02;106309;1285;63983;-77
2022/10/29 01:05:40;;;;;;;39.90;35.70;;;;;;;7.73;100.00;99671.64;106323;1287;58942;-78
2022/10/29 01:08:08;;;;;;;34.00;30.40;;;;;;;7.71;100.00;99661.11;106322;1279;59299;-78
2022/10/29 01:10:53;;;;;;;32.30;28.90;;;;;;;7.68;100.00;99656.44;106335;1282;66598;-78
2022/10/29 01:13:55;;;;;;;44.10;39.30;;;;;;;7.66;100.00;99653.55;106351;1287;59984;-78
2022/10/29 01:16:52;;;;;;;54.10;45.80;;;;;;;7.64;100.00;99651.88;105741;1292;63950;-78
2022/10/29 01:19:53;;;;;;;52.60;43.00;;;;;;;7.64;100.00;99655.40;105748;1292;58989;-78
2022/10/29 01:22:53;;;;;;;47.50;40.90;;;;;;;7.64;100.00;99654.54;105741;1300;59032;-78
2022/10/29 01:25:35;;;;;;;33.90;29.60;;;;;;;7.65;100.00;99654.13;105755;1292;67016;-77
2022/10/29 01:28:30;;;;;;;37.70;33.70;;;;;;;7.65;100.00;99648.50;105758;1297;61014;-78
2022/10/29 01:31:18;;;;;;;32.50;28.80;;;;;;;7.64;100.00;99644.27;105725;1294;65070;-77
2022/10/29 01:33:51;;;;;;;39.40;35.10;;;;;;;7.64;100.00;99643.55;105725;1289;59018;-78
2022/10/29 01:36:38;;;;;;;48.40;42.80;;;;;;;7.63;100.00;99643.40;105772;1291;58899;-78
2022/10/29 01:39:11;;;;;;;60.90;50.20;;;;;;;7.64;100.00;99645.48;105610;1297;64720;-78
2022/10/29 01:41:52;;;;;;;61.80;51.00;;;;;;;7.68;100.00;99643.02;105743;1289;60903;-78
2022/10/29 01:44:34;;;;;;;57.10;47.20;;;;;;;7.73;100.00;99641.56;105595;1299;71853;-78
2022/10/29 01:47:03;;;;;;;56.20;46.90;;;;;;;7.75;100.00;99636.53;105709;1290;59146;-78
2022/10/29 01:49:37;;;;;;;53.00;44.90;;;;;;;7.75;100.00;99634.04;105761;1290;59057;-77
2022/10/29 01:52:07;;;;;;;48.70;43.00;;;;;;;7.74;100.00;99641.69;105734;1292;67126;-78
2022/10/29 01:54:39;;;;;;;47.80;39.60;;;;;;;7.72;100.00;99640.22;106344;1292;61412;-78
2022/10/29 01:57:27;;;;;;;46.50;40.80;;;;;;;7.72;100.00;99635.09;106021;1288;63997;-78
2022/10/29 02:00:32;;;;;;;44.50;39.80;;;;;;;7.74;100.00;99632.52;106311;1284;59441;-77
2022/10/29 02:03:25;;;;;;;49.40;40.60;;;;;;;7.74;100.00;99622.42;105628;1293;58922;-78
2022/10/29 02:06:07;;;;;;;54.40;48.40;;;;;;;7.71;100.00;99618.13;105595;1295;66084;-77
2022/10/29 02:08:46;;;;;;;50.40;42.80;;;;;;;7.70;100.00;99623.11;105553;1292;61048;-78
2022/10/29 02:11:50;;;;;;;46.20;40.60;;;;;;;7.70;100.00;99627.01;105639;1299;64084;-77
2022/10/29 02:14:26;;;;;;;44.20;37.70;;;;;;;7.71;100.00;99627.16;105644;1296;59263;-78
2022/10/29 02:16:54;;;;;;;42.20;33.80;;;;;;;7.75;100.00;99633.17;105638;1293;59020;-78
2022/10/29 02:19:21;;;;;;;39.40;33.20;;;;;;;7.82;100.00;99628.77;105650;1291;66011;-78
2022/10/29 02:21:50;;;;;;;36.50;32.40;;;;;;;7.88;100.00;99625.50;105563;1299;61024;-77
2022/10/29 02:24:16;;;;;;;37.30;31.50;;;;;;;7.91;100.00;99624.11;105649;1295;72427;-76
2022/10/29 02:26:43;;;;;;;33.50;29.60;;;;;;;7.94;100.00;99622.40;105648;1294;59159;-78
2022/10/29 02:29:09;;;;;;;35.80;29.70;;;;;;;7.97;100.00;99621.38;105645;1294;59241;-78
2022/10/29 02:31:36;;;;;;;40.20;34.50;;;;;;;8.01;100.00;99621.02;105638;1295;67071;-77
2022/10/29 02:34:03;;;;;;;33.30;27.70;;;;;;;8.06;100.00;99628.21;105643;1296;60938;-77
2022/10/29 02:36:29;;;;;;;31.50;25.90;;;;;;;8.15;100.00;99630.64;105651;1293;65091;-77
2022/10/29 02:38:56;;;;;;;26.70;21.20;;;;;;;8.20;100.00;99633.20;105652;1294;58976;-78
2022/10/29 02:41:22;;;;;;;32.80;22.50;;;;;;;8.25;100.00;99631.20;106303;1284;58787;-77
2022/10/29 02:43:49;;;;;;;28.00;23.70;;;;;;;8.29;100.00;99627.99;106340;1285;66309;-77
2022/10/29 02:46:18;;;;;;;32.10;26.20;;;;;;;8.31;100.00;99623.11;106118;1288;59989;-77
2022/10/29 02:48:46;;;;;;;30.20;25.60;;;;;;;8.30;100.00;99612.54;106103;1286;65000;-77
2022/10/29 02:51:13;;;;;;;32.20;28.70;;;;;;;8.28;100.00;99609.48;106021;1277;59074;-78
2022/10/29 02:53:39;;;;;;;35.30;31.40;;;;;;;8.26;100.00;99610.66;106344;1286;58972;-78
2022/10/29 02:56:07;;;;;;;35.20;31.30;;;;;;;8.26;100.00;99616.63;106321;1285;66983;-77
2022/10/29 02:58:34;;;;;;;34.50;30.50;;;;;;;8.27;100.00;99615.73;106063;1288;60955;-77
2022/10/29 03:01:01;;;;;;;35.50;30.20;;;;;;;8.28;100.00;99602.02;106048;1287;64069;-77
2022/10/29 03:03:27;;;;;;;33.70;29.80;;;;;;;8.30;100.00;99592.57;106027;1290;59110;-77
2022/10/29 03:05:54;;;;;;;43.10;38.30;;;;;;;8.30;100.00;99601.05;105854;1290;58834;-77
2022/10/29 03:08:21;;;;;;;34.90;29.90;;;;;;;8.32;100.00;99607.16;106044;1289;65747;-76
2022/10/29 03:10:48;;;;;;;29.20;24.90;;;;;;;8.35;100.00;99602.39;106048;1295;60085;-77
2022/10/29 03:13:14;;;;;;;26.80;21.50;;;;;;;8.42;100.00;99599.27;106014;1296;65017;-77
2022/10/29 03:15:44;;;;;;;24.10;19.60;;;;;;;8.49;100.00;99599.27;106017;1289;58913;-76
2022/10/29 03:18:11;;;;;;;23.00;18.10;;;;;;;8.60;100.00;99603.92;105766;1300;58938;-77
2022/10/29 03:20:38;;;;;;;25.60;20.00;;;;;;;8.67;100.00;99603.89;106032;1288;66001;-77
2022/10/29 03:23:04;;;;;;;22.30;19.00;;;;;;;8.74;100.00;99607.27;105813;1290;60086;-77
2022/10/29 03:25:31;;;;;;;22.80;17.80;;;;;;;8.78;100.00;99597.50;106027;1295;65051;-77
2022/10/29 03:27:57;;;;;;;25.20;21.30;;;;;;;8.83;100.00;99593.05;106029;1296;58909;-76
2022/10/29 03:30:24;;;;;;;24.20;21.50;;;;;;;8.83;100.00;99596.18;106262;1281;58823;-77
2022/10/29 03:32:50;;;;;;;24.10;19.40;;;;;;;8.85;100.00;99592.24;106325;1284;66041;-78
2022/10/29 03:35:17;;;;;;;26.10;22.40;;;;;;;8.85;100.00;99588.30;106338;1285;61015;-76
2022/10/29 03:37:43;;;;;;;27.40;23.50;;;;;;;8.87;100.00;99592.99;106308;1283;64004;-78
2022/10/29 03:40:10;;;;;;;28.80;22.30;;;;;;;8.86;100.00;99592.66;106349;1286;58883;-78
2022/10/29 03:42:37;;;;;;;25.70;20.30;;;;;;;8.86;100.00;99601.73;106089;1282;59039;-78
2022/10/29 03:45:04;;;;;;;24.70;19.60;;;;;;;8.86;100.00;99601.03;106019;1292;67046;-78
2022/10/29 03:47:32;;;;;;;21.70;18.60;;;;;;;8.84;100.00;99594.70;106055;1286;59978;-78
2022/10/29 03:49:58;;;;;;;24.90;21.80;;;;;;;8.83;100.00;99592.32;106249;1284;65245;-77
2022/10/29 03:52:25;;;;;;;22.30;19.80;;;;;;;8.79;100.00;99588.42;106359;1278;58960;-78
2022/10/29 03:54:52;;;;;;;24.20;20.60;;;;;;;8.74;100.00;99599.98;106263;1284;60202;-78
2022/10/29 03:57:19;;;;;;;22.50;19.60;;;;;;;8.73;100.00;99604.14;106326;1285;67107;-78
2022/10/29 03:59:47;;;;;;;26.10;19.80;;;;;;;8.72;100.00;99611.45;106263;1278;59826;-77
2022/10/29 04:02:13;;;;;;;22.70;19.40;;;;;;;8.73;100.00;99608.19;106322;1278;65098;-78
2022/10/29 04:04:40;;;;;;;26.00;18.80;;;;;;;8.76;100.00;99608.77;106313;1285;58918;-78
2022/10/29 04:07:06;;;;;;;24.70;20.00;;;;;;;8.78;100.00;99597.85;106038;1283;59131;-77
2022/10/29 04:09:34;;;;;;;26.20;20.90;;;;;;;8.78;100.00;99589.69;106308;1285;67074;-77
2022/10/29 04:12:01;;;;;;;24.80;19.80;;;;;;;8.77;100.00;99597.90;106341;1284;59838;-78
2022/10/29 04:14:28;;;;;;;21.50;18.70;;;;;;;8.76;100.00;99606.48;106340;1286;65066;-78
2022/10/29 04:16:56;;;;;;;23.80;19.40;;;;;;;8.75;100.00;99604.00;106350;1285;58886;-78
2022/10/29 04:19:22;;;;;;;25.10;19.90;;;;;;;8.75;100.00;99607.06;106357;1286;58872;-77
2022/10/29 04:21:49;;;;;;;20.80;18.60;;;;;;;8.74;100.00;99607.95;106192;1284;198563;-77
2022/10/29 04:24:17;;;;;;;18.40;15.90;;;;;;;8.76;100.00;99610.36;106354;1286;60763;-78
2022/10/29 04:26:44;;;;;;;22.40;18.40;;;;;;;8.81;100.00;99614.88;106338;1284;65302;-77
2022/10/29 04:29:10;;;;;;;21.10;18.70;;;;;;;8.87;100.00;99615.66;106341;1286;58871;-78
2022/10/29 04:31:37;;;;;;;23.80;21.00;;;;;;;8.89;100.00;99612.91;106317;1285;58862;-78
2022/10/29 04:34:04;;;;;;;22.50;20.00;;;;;;;8.89;100.00;99615.39;106320;1284;66954;-78
2022/10/29 04:36:30;;;;;;;22.70;19.10;;;;;;;8.88;100.00;99617.39;106350;1285;59986;-78
2022/10/29 04:38:57;;;;;;;21.00;18.80;;;;;;;8.88;100.00;99608.02;106339;1286;64983;-78
2022/10/29 04:41:23;;;;;;;20.20;16.50;;;;;;;8.87;100.00;99612.27;106080;1294;59013;-78
2022/10/29 04:43:50;;;;;;;18.70;15.90;;;;;;;8.88;100.00;99613.13;106310;1277;58719;-78
2022/10/29 04:46:17;;;;;;;20.20;17.00;;;;;;;8.91;100.00;99613.35;106331;1285;67065;-78
2022/10/29 04:48:43;;;;;;;21.10;17.50;;;;;;;8.94;100.00;99615.48;106318;1282;60823;-78
2022/10/29 04:51:36;;;;;;;23.80;18.80;;;;;;;9.01;100.00;99610.19;106331;1285;63987;-78
2022/10/29 04:54:03;;;;;;;19.60;17.50;;;;;;;9.09;100.00;99611.04;105608;1293;59022;-77
2022/10/29 04:56:30;;;;;;;19.40;17.10;;;;;;;9.15;100.00;99620.11;105628;1295;59158;-77
2022/10/29 04:58:56;;;;;;;21.60;17.90;;;;;;;9.22;100.00;99622.94;105672;1295;66268;-78
2022/10/29 05:01:23;;;;;;;21.10;15.90;;;;;;;9.29;100.00;99620.84;105539;1287;59950;-78
2022/10/29 05:03:49;;;;;;;20.50;17.30;;;;;;;9.35;100.00;99615.68;105619;1294;64060;-78
2022/10/29 05:06:16;;;;;;;19.10;16.10;;;;;;;9.41;100.00;99615.55;105645;1293;58976;-78
2022/10/29 05:08:43;;;;;;;20.00;16.20;;;;;;;9.46;100.00;99616.02;105647;1294;59021;-78
2022/10/29 05:11:10;;;;;;;18.20;16.20;;;;;;;9.52;100.00;99601.89;105651;1293;65961;-78
2022/10/29 05:13:37;;;;;;;20.70;16.70;;;;;;;9.58;100.00;99591.09;105643;1294;61081;-77
2022/10/29 05:16:04;;;;;;;20.60;16.90;;;;;;;9.65;100.00;99567.27;105637;1294;65063;-77
2022/10/29 05:18:31;;;;;;;29.40;26.10;;;;;;;9.72;100.00;99537.09;105658;1294;59002;-78
2022/10/29 05:20:57;;;;;;;29.00;25.90;;;;;;;9.76;100.00;99515.42;105632;1293;59097;-78
2022/10/29 05:23:24;;;;;;;26.90;22.00;;;;;;;9.80;100.00;99476.70;105654;1287;67022;-77
2022/10/29 05:25:51;;;;;;;22.20;16.80;;;;;;;9.85;100.00;99484.52;105627;1295;59969;-78
2022/10/29 05:28:19;;;;;;;18.70;16.00;;;;;;;9.95;100.00;99568.15;105626;1294;64059;-78
2022/10/29 05:30:48;;;;;;;18.60;15.60;;;;;;;10.07;100.00;99618.25;105779;1294;59908;-78
2022/10/29 05:33:17;;;;;;;18.00;14.70;;;;;;;10.15;100.00;99602.19;106326;1285;59093;-78
2022/10/29 05:35:44;;;;;;;19.50;15.00;;;;;;;10.18;100.00;99598.81;106310;1286;68057;-78
2022/10/29 05:38:12;;;;;;;18.00;15.00;;;;;;;10.24;100.00;99629.38;106327;1285;60279;-78
2022/10/29 05:40:39;;;;;;;19.10;15.10;;;;;;;10.29;100.00;99622.54;106287;1277;65013;-78
2022/10/29 05:43:05;;;;;;;17.80;13.00;;;;;;;10.35;100.00;99600.17;106331;1285;58946;-77
2022/10/29 05:45:32;;;;;;;19.50;13.30;;;;;;;10.41;100.00;99614.29;106325;1279;59274;-77
2022/10/29 05:48:01;;;;;;;13.70;12.00;;;;;;;10.46;100.00;99612.91;106324;1279;67044;-80
2022/10/29 05:50:28;;;;;;;20.10;13.40;;;;;;;10.50;100.00;99611.98;106248;1292;59292;-73
2022/10/29 05:52:56;;;;;;;14.50;12.50;;;;;;;10.53;100.00;99616.22;106298;1285;64039;-78
2022/10/29 05:55:24;;;;;;;13.50;11.60;;;;;;;10.58;100.00;99610.99;106275;1285;58908;-78
2022/10/29 05:57:58;;;;;;;16.30;12.30;;;;;;;10.62;100.00;99598.14;106070;1288;58950;-78
2022/10/29 06:00:27;;;;;;;14.90;12.50;;;;;;;10.67;100.00;99593.58;106300;1285;67068;-79
2022/10/29 06:02:54;;;;;;;15.70;12.40;;;;;;;10.68;100.00;99592.25;106332;1285;58876;-78
2022/10/29 06:05:21;;;;;;;16.60;13.70;;;;;;;10.70;100.00;99595.59;106290;1285;65025;-75
2022/10/29 06:07:56;;;;;;;18.70;13.70;;;;;;;10.70;100.00;99592.89;106308;1285;58960;-78
2022/10/29 06:10:24;;;;;;;18.30;13.00;;;;;;;10.72;100.00;99585.61;106318;1284;58919;-77
2022/10/29 06:12:52;;;;;;;19.90;13.70;;;;;;;10.76;100.00;99579.39;106298;1285;65709;-77
2022/10/29 06:15:19;;;;;;;20.60;13.20;;;;;;;10.79;100.00;99577.08;106243;1288;60707;-77
2022/10/29 06:17:47;;;;;;;17.10;13.20;;;;;;;10.83;100.00;99576.13;105916;1286;64776;-76
2022/10/29 06:20:16;;;;;;;14.30;10.20;;;;;;;10.89;100.00;99576.86;106307;1284;58915;-77
2022/10/29 06:22:43;;;;;;;11.90;10.20;;;;;;;10.94;100.00;99576.88;106279;1284;58677;-77
2022/10/29 06:25:09;;;;;;;21.20;15.70;;;;;;;11.00;100.00;99578.33;106002;1287;65819;-76
2022/10/29 06:27:37;;;;;;;15.40;12.00;;;;;;;11.05;100.00;99582.45;106295;1285;59858;-77
2022/10/29 06:30:05;;;;;;;12.40;10.90;;;;;;;11.11;100.00;99585.84;106267;1286;63980;-78
2022/10/29 06:32:31;;;;;;;13.20;10.80;;;;;;;11.19;100.00;99593.02;106022;1291;58962;-75
2022/10/29 06:34:58;;;;;;;11.60;9.90;;;;;;;11.28;100.00;99605.66;106304;1284;59184;-77
2022/10/29 06:37:25;;;;;;;11.50;9.80;;;;;;;11.38;100.00;99608.95;106323;1284;67105;-77
2022/10/29 06:39:51;;;;;;;14.60;10.50;;;;;;;11.49;100.00;99606.69;105913;1291;60821;-77
2022/10/29 06:42:18;;;;;;;11.00;9.20;;;;;;;11.61;100.00;99609.33;106283;1285;65064;-77
2022/10/29 06:44:44;;;;;;;11.20;9.50;;;;;;;11.75;100.00;99622.36;106024;1289;58970;-76
2022/10/29 06:47:11;;;;;;;12.70;11.40;;;;;;;11.90;100.00;99630.21;106290;1278;59103;-75
2022/10/29 06:49:38;;;;;;;11.20;9.10;;;;;;;12.04;100.00;99633.98;106273;1281;67076;-77
2022/10/29 06:52:04;;;;;;;11.00;9.50;;;;;;;12.18;100.00;99633.81;106120;1288;60574;-78
2022/10/29 06:54:31;;;;;;;15.30;10.70;;;;;;;12.31;100.00;99638.34;106309;1286;64999;-77
2022/10/29 06:56:57;;;;;;;13.10;10.30;;;;;;;12.42;100.00;99642.41;106335;1291;58944;-78
2022/10/29 06:59:24;;;;;;;12.70;9.90;;;;;;;12.54;100.00;99645.93;106330;1278;58932;-77
2022/10/29 07:01:50;;;;;;;11.80;9.30;;;;;;;12.68;100.00;99638.94;106307;1285;66010;-78
2022/10/29 07:04:17;;;;;;;12.20;10.60;;;;;;;12.81;100.00;99642.73;106288;1278;59930;-78
2022/10/29 07:06:44;;;;;;;11.40;9.70;;;;;;;12.92;100.00;99646.27;106065;1281;65208;-78
2022/10/29 07:09:11;;;;;;;12.50;11.00;;;;;;;13.03;100.00;99649.68;105950;1291;59132;-78
2022/10/29 07:11:39;;;;;;;13.00;10.70;;;;;;;13.14;100.00;99648.23;106053;1281;58876;-78
2022/10/29 07:14:08;;;;;;;13.20;10.70;;;;;;;13.24;100.00;99646.69;106341;1278;67027;-77
2022/10/29 07:16:35;;;;;;;14.00;11.20;;;;;;;13.33;100.00;99647.85;106343;1284;60021;-78
2022/10/29 07:19:03;;;;;;;12.80;10.00;;;;;;;13.41;100.00;99648.23;106315;1284;64318;-78
2022/10/29 07:21:30;;;;;;;12.20;10.40;;;;;;;13.47;100.00;99649.98;106303;1285;58969;-78
2022/10/29 07:23:57;;;;;;;11.60;10.00;;;;;;;13.49;100.00;99649.43;106315;1278;59035;-78
2022/10/29 07:26:23;;;;;;;13.60;10.80;;;;;;;13.50;100.00;99653.85;106327;1285;67204;-78
2022/10/29 07:28:53;;;;;;;15.50;10.70;;;;;;;13.49;100.00;99663.72;106336;1285;61216;-79
2022/10/29 07:31:20;;;;;;;12.70;11.10;;;;;;;13.47;100.00;99667.80;106348;1277;64068;-78
2022/10/29 07:33:46;;;;;;;14.90;11.00;;;;;;;13.45;100.00;99672.94;106283;1278;58923;-78
2022/10/29 07:36:13;;;;;;;12.20;10.10;;;;;;;13.45;100.00;99678.33;106340;1285;59044;-78
2022/10/29 07:38:39;;;;;;;12.10;10.20;;;;;;;13.44;100.00;99681.73;106079;1288;66088;-77
2022/10/29 07:41:06;;;;;;;13.80;10.80;;;;;;;13.45;100.00;99683.66;106331;1277;59240;-78
2022/10/29 07:43:33;;;;;;;13.30;11.10;;;;;;;13.46;100.00;99685.17;106317;1285;64091;-77
2022/10/29 07:45:59;;;;;;;12.40;10.60;;;;;;;13.47;100.00;99689.37;106332;1285;58930;-77
2022/10/29 07:48:26;;;;;;;14.60;10.60;;;;;;;13.50;100.00;99692.61;106333;1285;58900;-78
2022/10/29 07:50:53;;;;;;;11.30;9.90;;;;;;;13.54;100.00;99696.27;105994;1290;66761;-76
2022/10/29 07:53:19;;;;;;;12.40;10.90;;;;;;;13.60;100.00;99694.55;106234;1284;60989;-79
2022/10/29 07:55:54;;;;;;;12.50;11.00;;;;;;;13.69;100.00;99692.02;106304;1278;63837;-79
2022/10/29 07:58:21;;;;;;;11.70;10.50;;;;;;;13.79;100.00;99688.66;106316;1285;58974;-78
2022/10/29 08:00:48;;;;;;;12.60;10.10;;;;;;;13.89;100.00;99690.67;106078;1289;58980;-77
2022/10/29 08:03:15;;;;;;;14.00;10.40;;;;;;;13.99;100.00;99690.45;106307;1285;65887;-78
2022/10/29 08:05:42;;;;;;;11.40;9.70;;;;;;;14.09;100.00;99686.56;106326;1285;61050;-78
2022/10/29 08:08:09;;;;;;;13.00;10.30;;;;;;;14.18;100.00;99686.64;106302;1285;64287;-77
2022/10/29 08:10:36;;;;;;;11.50;10.00;;;;;;;14.29;100.00;99680.33;106325;1286;59196;-78
2022/10/29 08:13:05;;;;;;;10.00;9.00;;;;;;;14.38;100.00;99683.77;106116;1285;59229;-78
2022/10/29 08:15:33;;;;;;;10.60;9.40;;;;;;;14.42;100.00;99684.54;106072;1288;66031;-76
2022/10/29 08:18:02;;;;;;;11.20;10.00;;;;;;;14.47;100.00;99685.40;106358;1284;61203;-78
2022/10/29 08:20:29;;;;;;;12.10;10.20;;;;;;;14.52;100.00;99690.31;106340;1285;63985;-78
2022/10/29 08:22:59;;;;;;;12.10;10.20;;;;;;;14.52;100.00;99695.63;106284;1285;59079;-78
2022/10/29 08:25:26;;;;;;;11.00;9.80;;;;;;;14.54;100.00;99694.85;106133;1288;59147;-78
2022/10/29 08:28:01;;;;;;;13.00;10.00;;;;;;;14.52;100.00;99694.20;106323;1278;66233;-78
2022/10/29 08:30:28;;;;;;;13.60;10.30;;;;;;;14.54;100.00;99699.64;106372;1278;60951;-78
2022/10/29 08:32:54;;;;;;;10.70;9.50;;;;;;;14.54;100.00;99703.57;106357;1276;63817;-77
2022/10/29 08:35:21;;;;;;;13.40;10.60;;;;;;;14.55;100.00;99701.55;106343;1286;59076;-78
2022/10/29 08:37:48;;;;;;;12.80;10.10;;;;;;;14.57;100.00;99697.33;106338;1285;59976;-78
2022/10/29 08:40:26;;;;;;;12.80;10.30;;;;;;;14.65;100.00;99697.43;106357;1278;67034;-79
2022/10/29 08:42:56;;;;;;;15.90;10.60;;;;;;;14.75;100.00;99695.80;106327;1278;59948;-78
2022/10/29 08:45:34;;;;;;;12.00;10.30;;;;;;;14.78;100.00;99699.34;106324;1278;63815;-78
2022/10/29 08:48:14;;;;;;;14.50;10.10;;;;;;;14.79;100.00;99699.05;106311;1278;59830;-78
2022/10/29 08:50:46;;;;;;;11.00;9.50;;;;;;;14.90;100.00;99693.09;106356;1278;59669;-78
2022/10/29 08:53:23;;;;;;;11.80;10.60;;;;;;;15.05;100.00;99696.09;106336;1285;67044;-78
2022/10/29 08:55:50;;;;;;;17.60;10.30;;;;;;;15.17;100.00;99694.27;106349;1278;60040;-78
2022/10/29 08:58:34;;;;;;;13.70;9.70;;;;;;;15.20;100.00;99694.13;106331;1285;64989;-78
2022/10/29 09:01:00;;;;;;;14.00;10.10;;;;;;;15.19;100.00;99695.04;106356;1285;59009;-77
2022/10/29 09:03:31;;;;;;;13.40;9.80;;;;;;;15.19;100.00;99695.79;106379;1285;58849;-78
2022/10/29 09:06:06;;;;;;;10.30;9.20;;;;;;;15.18;100.00;99696.91;106361;1285;74945;-79
2022/10/29 09:08:41;;;;;;;12.70;9.70;;;;;;;15.17;100.00;99693.23;106327;1284;59958;-77
2022/10/29 09:11:41;;;;;;;10.60;9.20;;;;;;;15.21;100.00;99689.86;106330;1278;63976;-78
2022/10/29 09:14:20;;;;;;;10.60;8.90;;;;;;;15.31;100.00;99685.53;106358;1285;58909;-78
2022/10/29 09:16:58;;;;;;;15.10;9.50;;;;;;;15.41;100.00;99684.45;106101;1281;58963;-78
2022/10/29 09:19:49;;;;;;;12.70;10.00;;;;;;;15.52;100.00;99683.79;106318;1285;67015;-78
2022/10/29 09:22:37;;;;;;;11.40;9.00;;;;;;;15.67;100.00;99681.75;106352;1285;60982;-79
2022/10/29 09:25:12;;;;;;;11.40;9.00;;;;;;;15.84;100.00;99685.16;106326;1278;65063;-79
2022/10/29 09:28:08;;;;;;;13.40;8.50;;;;;;;16.00;100.00;99692.66;106321;1278;58860;-78
2022/10/29 09:30:46;;;;;;;10.80;8.50;;;;;;;16.16;100.00;99689.95;106340;1285;58849;-77
2022/10/29 09:33:19;;;;;;;11.40;8.80;;;;;;;16.34;100.00;99683.14;106336;1285;66039;-78
2022/10/29 09:35:52;;;;;;;11.70;8.40;;;;;;;16.56;100.00;99686.39;106303;1278;59904;-78
2022/10/29 09:38:28;;;;;;;10.10;8.50;;;;;;;16.71;100.00;99687.14;106337;1278;64793;-76
2022/10/29 09:41:00;;;;;;;10.50;7.50;;;;;;;16.77;100.00;99681.87;106078;1288;58899;-78
2022/10/29 09:43:34;;;;;;;8.40;6.60;;;;;;;16.79;100.00;99689.64;106336;1285;58960;-78
2022/10/29 09:46:23;;;;;;;9.70;7.00;;;;;;;16.80;100.00;99690.98;106344;1285;65964;-78
2022/10/29 09:49:09;;;;;;;7.30;6.20;;;;;;;16.79;100.00;99685.64;106352;1284;59847;-77
2022/10/29 09:51:54;;;;;;;8.90;6.80;;;;;;;16.77;100.00;99687.23;106341;1278;65023;-78
2022/10/29 09:54:24;;;;;;;9.60;6.10;;;;;;;16.84;100.00;99677.30;106072;1288;59857;-78
2022/10/29 09:56:51;;;;;;;7.30;5.80;;;;;;;16.93;100.00;99681.98;106336;1278;58979;-78
2022/10/29 09:59:17;;;;;;;7.90;5.70;;;;;;;17.04;100.00;99685.73;106339;1278;67525;-78
2022/10/29 10:01:46;;;;;;;9.90;6.00;;;;;;;17.11;100.00;99684.64;106299;1276;58924;-77
2022/10/29 10:04:27;;;;;;;7.10;5.60;;;;;;;17.22;100.00;99679.05;105826;1294;62693;-78
2022/10/29 10:07:08;;;;;;;8.70;5.70;;;;;;;17.39;100.00;99678.70;106065;1281;58865;-77
2022/10/29 10:10:06;;;;;;;6.60;6.00;;;;;;;17.54;100.00;99666.42;106353;1285;58944;-78
2022/10/29 10:12:37;;;;;;;7.00;6.30;;;;;;;17.72;100.00;99660.76;105764;1284;67385;-78
2022/10/29 10:15:18;;;;;;;8.60;6.10;;;;;;;17.86;100.00;99655.34;105766;1286;60830;-79
2022/10/29 10:18:04;;;;;;;6.20;5.50;;;;;;;18.00;100.00;99655.20;105743;1292;64080;-79
2022/10/29 10:20:43;;;;;;;7.40;5.70;;;;;;;18.15;100.00;99646.33;105726;1292;58868;-79
2022/10/29 10:23:26;;;;;;;7.30;5.70;;;;;;;18.29;100.00;99640.20;105743;1294;58903;-77
2022/10/29 10:25:58;;;;;;;9.70;6.00;;;;;;;18.36;100.00;99638.01;105739;1294;66019;-77
2022/10/29 10:28:30;;;;;;;6.80;5.50;;;;;;;18.43;100.00;99636.83;105743;1287;61194;-78
2022/10/29 10:31:02;;;;;;;8.00;5.30;;;;;;;18.48;100.00;99635.63;105570;1294;64069;-78
2022/10/29 10:33:31;;;;;;;7.00;5.90;;;;;;;18.52;100.00;99635.98;105737;1300;58952;-78
2022/10/29 10:36:06;;;;;;;7.90;5.60;;;;;;;18.49;100.00;99637.73;105762;1286;59174;-77
2022/10/29 10:39:16;;;;;;;6.50;5.40;;;;;;;18.50;100.00;99633.27;105739;1287;66033;-77
2022/10/29 10:41:42;;;;;;;6.00;5.40;;;;;;;18.56;100.00;99624.52;105360;1298;59793;-77
2022/10/29 10:44:11;;;;;;;7.80;5.50;;;;;;;18.55;100.00;99623.17;105349;1300;65075;-78
2022/10/29 10:46:41;;;;;;;7.30;6.20;;;;;;;18.48;100.00;99614.80;105184;1294;59851;-78
2022/10/29 10:49:16;;;;;;;6.90;5.00;;;;;;;18.33;100.00;99617.00;105406;1294;59041;-77
2022/10/29 10:51:51;;;;;;;8.80;5.60;;;;;;;18.13;100.00;99620.27;105563;1297;65790;-78
2022/10/29 10:54:30;;;;;;;7.80;5.50;;;;;;;18.04;100.00;99620.27;105826;1286;60973;-79
2022/10/29 10:57:18;;;;;;;8.40;5.60;;;;;;;18.06;100.00;99615.42;105825;1285;64107;-76
2022/10/29 11:00:16;;;;;;;6.30;5.70;;;;;;;18.12;100.00;99614.23;105799;1283;59659;-74
2022/10/29 11:02:46;;;;;;;7.30;5.70;;;;;;;18.22;100.00;99610.48;105828;1284;59016;-77
2022/10/29 11:05:30;;;;;;;6.60;5.80;;;;;;;18.29;100.00;99611.45;105827;1285;67127;-77
2022/10/29 11:08:11;;;;;;;7.20;4.90;;;;;;;18.38;100.00;99605.06;105840;1291;60974;-76
2022/10/29 11:10:43;;;;;;;7.20;5.50;;;;;;;18.51;100.00;99598.36;105792;1292;64176;-77
2022/10/29 11:13:16;;;;;;;6.70;5.60;;;;;;;18.54;100.00;99598.56;105812;1291;59154;-77
2022/10/29 11:16:15;;;;;;;7.70;5.50;;;;;;;18.49;100.00;99595.77;105825;1284;58882;-77
2022/10/29 11:18:57;;;;;;;8.00;6.20;;;;;;;18.42;100.00;99591.86;105791;1291;66992;-77
2022/10/29 11:21:46;;;;;;;7.70;5.60;;;;;;;18.41;100.00;99589.70;105574;1297;61002;-76
2022/10/29 11:24:42;;;;;;;9.10;5.50;;;;;;;18.39;100.00;99592.85;105223;1299;65112;-76
2022/10/29 11:27:26;;;;;;;5.90;5.10;;;;;;;18.40;100.00;99595.19;104674;1306;59002;-77
2022/10/29 11:30:03;;;;;;;7.40;5.70;;;;;;;18.40;100.00;99592.96;104614;1298;59027;-77